Time;durP1;ratioP1;P1;durP2;ratioP2;P2;SDS_P1;SDS_P2;PMS_P1;PMS_P2;Temp;Humidity;BMP_temperature;BMP_pressure;BME280_temperature;BME280_humidity;BME280_pressure;Samples;Min_cycle;Max_cycle;Signal;HPM_P1;HPM_P2
2022/12/09 00:00:52;;;;;;;;;;;;;;;2.77;67.84;94310.94;5073735;28;20025;-65
2022/12/09 00:03:18;;;;;;;;;;;;;;;3.51;66.00;94302.91;5074078;28;20020;-65
2022/12/09 00:05:46;;;;;;;;;;;;;;;3.80;65.36;94298.34;5074670;28;20016;-66
2022/12/09 00:08:12;;;;;;;;;;;;;;;3.98;64.35;94281.03;5092050;28;20035;-65
2022/12/09 00:10:37;;;;;;;;;;;;;;;4.15;63.26;94299.75;5092291;28;20016;-65
2022/12/09 00:13:02;;;;;;;;;;;;;;;4.20;62.79;94291.03;5092234;28;20009;-65
2022/12/09 00:15:27;;;;;;;;;;;;;;;4.23;62.59;94287.03;5092201;28;20009;-65
2022/12/09 00:17:53;;;;;;;;;;;;;;;4.32;62.23;94285.31;5092061;28;20048;-65
2022/12/09 00:20:18;;;;;;;;;;;;;;;4.41;61.94;94289.66;5091425;28;20368;-64
2022/12/09 00:22:43;;;;;;;;;;;;;;;4.50;61.65;94286.38;5092043;28;20484;-65
2022/12/09 00:25:08;;;;;;;;;;;;;;;4.46;61.16;94288.03;5091880;28;20009;-65
2022/12/09 00:27:33;;;;;;;;;;;;;;;4.43;60.75;94284.09;5092010;28;20111;-66
2022/12/09 00:29:59;;;;;;;;;;;;;;;3.97;61.22;94281.31;5091536;28;20012;-65
2022/12/09 00:32:24;;;;;;;;;;;;;;;3.27;63.45;94268.69;5073581;28;20013;-66
2022/12/09 00:34:49;;;;;;;;;;;;;;;3.34;63.72;94264.69;5091790;28;20019;-65
2022/12/09 00:37:14;;;;;;;;;;;;;;;3.60;63.59;94262.56;5091656;28;20017;-66
2022/12/09 00:39:39;;;;;;;;;;;;;;;3.76;63.32;94262.38;5091249;28;20019;-65
2022/12/09 00:42:05;;;;;;;;;;;;;;;3.76;63.03;94257.13;5091727;28;20099;-65
2022/12/09 00:44:30;;;;;;;;;;;;;;;3.64;63.29;94250.41;5091523;28;20013;-65
2022/12/09 00:46:55;;;;;;;;;;;;;;;3.99;63.12;94252.84;5091511;28;20036;-65
2022/12/09 00:49:20;;;;;;;;;;;;;;;4.19;62.97;94244.69;5091124;28;20005;-65
2022/12/09 00:51:46;;;;;;;;;;;;;;;4.34;62.65;94243.69;5091152;28;20035;-65
2022/12/09 00:54:11;;;;;;;;;;;;;;;4.43;62.16;94234.06;5090992;28;20009;-65
2022/12/09 00:56:37;;;;;;;;;;;;;;;4.46;61.66;94236.16;5091262;28;20024;-64
2022/12/09 00:59:02;;;;;;;;;;;;;;;4.54;61.37;94234.69;5090933;28;20111;-64
2022/12/09 01:01:28;;;;;;;;;;;;;;;4.56;61.06;94238.63;5091427;28;20009;-65
2022/12/09 01:03:53;;;;;;;;;;;;;;;4.62;60.73;94231.41;5091249;28;20012;-64
2022/12/09 01:06:21;;;;;;;;;;;;;;;4.72;60.37;94227.84;5091103;28;20009;-64
2022/12/09 01:08:46;;;;;;;;;;;;;;;4.70;60.13;94231.53;5072773;28;20384;-64
2022/12/09 01:11:13;;;;;;;;;;;;;;;4.73;59.79;94239.94;5091142;28;20009;-64
2022/12/09 01:13:39;;;;;;;;;;;;;;;3.90;59.56;94118.56;5091036;28;20008;-64
2022/12/09 01:16:12;;;;;;;;;;;;;;;4.51;59.27;94241.34;5091108;28;20016;-64
2022/12/09 01:18:37;;;;;;;;;;;;;;;4.41;59.62;94236.22;5090647;28;20013;-64
2022/12/09 01:21:02;;;;;;;;;;;;;;;4.28;60.06;94229.03;5091032;28;20410;-64
2022/12/09 01:23:27;;;;;;;;;;;;;;;4.24;60.26;94235.94;5091057;28;20070;-65
2022/12/09 01:25:52;;;;;;;;;;;;;;;4.22;60.24;94233.59;5090871;28;20009;-64
2022/12/09 01:28:18;;;;;;;;;;;;;;;4.16;60.39;94222.38;5090458;28;20043;-64
2022/12/09 01:30:43;;;;;;;;;;;;;;;4.12;60.36;94213.47;5090683;28;20477;-64
2022/12/09 01:33:09;;;;;;;;;;;;;;;3.83;60.17;94228.59;5090698;28;20062;-64
2022/12/09 01:35:34;;;;;;;;;;;;;;;2.72;63.29;94242.72;5090713;28;20008;-64
2022/12/09 01:37:59;;;;;;;;;;;;;;;2.13;65.72;94238.44;5090139;28;20017;-63
2022/12/09 01:40:24;;;;;;;;;;;;;;;2.48;66.54;94228.72;5090411;28;20119;-64
2022/12/09 01:42:49;;;;;;;;;;;;;;;2.42;65.96;94220.13;5090422;28;20019;-64
2022/12/09 01:45:21;;;;;;;;;;;;;;;2.32;66.32;94220.19;5090511;28;20516;-64
2022/12/09 01:47:58;;;;;;;;;;;;;;;2.09;67.13;94225.06;5072665;28;20063;-64
2022/12/09 01:50:24;;;;;;;;;;;;;;;2.74;65.62;94208.28;5072097;28;20013;-64
2022/12/09 01:52:49;;;;;;;;;;;;;;;2.46;66.59;94204.59;5090350;28;20457;-66
2022/12/09 01:55:14;;;;;;;;;;;;;;;3.02;65.97;94202.25;5072303;28;20019;-65
2022/12/09 01:57:40;;;;;;;;;;;;;;;3.34;65.33;94206.09;5089984;28;20021;-64
2022/12/09 02:00:06;;;;;;;;;;;;;;;3.59;64.78;94205.78;5071705;28;20027;-66
2022/12/09 02:02:33;;;;;;;;;;;;;;;3.75;64.16;94201.09;5089840;28;20622;-65
2022/12/09 02:04:58;;;;;;;;;;;;;;;3.93;63.80;94191.63;5089853;28;20358;-65
2022/12/09 02:07:23;;;;;;;;;;;;;;;4.03;62.81;94190.72;5090146;28;20026;-66
2022/12/09 02:09:51;;;;;;;;;;;;;;;4.14;62.69;94192.91;5089909;28;20012;-66
2022/12/09 02:12:36;;;;;;;;;;;;;;;4.20;62.29;94179.66;5090076;28;20008;-66
2022/12/09 02:15:08;;;;;;;;;;;;;;;4.21;62.01;94174.13;5090354;28;20020;-66
2022/12/09 02:17:43;;;;;;;;;;;;;;;4.30;61.76;94168.97;5089870;28;20017;-66
2022/12/09 02:20:20;;;;;;;;;;;;;;;4.34;61.51;94172.59;5071613;28;20494;-65
2022/12/09 02:22:52;;;;;;;;;;;;;;;4.41;61.04;94163.28;5089912;28;20005;-66
2022/12/09 02:25:20;;;;;;;;;;;;;;;4.49;60.76;94164.44;5089736;28;20013;-66
2022/12/09 02:27:46;;;;;;;;;;;;;;;4.55;60.53;94159.88;5090066;28;20530;-66
2022/12/09 02:30:11;;;;;;;;;;;;;;;4.57;60.14;94165.66;5089710;28;20008;-66
2022/12/09 02:32:42;;;;;;;;;;;;;;;4.58;59.85;94154.81;5090001;28;20396;-65
2022/12/09 02:35:17;;;;;;;;;;;;;;;4.56;59.93;94156.19;5090128;28;20008;-65
2022/12/09 02:37:52;;;;;;;;;;;;;;;4.58;59.61;94161.94;5089890;28;20020;-65
2022/12/09 02:40:24;;;;;;;;;;;;;;;4.56;59.73;94166.72;5089349;28;20752;-65
2022/12/09 02:42:49;;;;;;;;;;;;;;;4.03;59.90;94165.19;5089808;28;20012;-65
2022/12/09 02:45:16;;;;;;;;;;;;;;;4.28;60.47;94169.28;5089757;28;20015;-66
2022/12/09 02:47:47;;;;;;;;;;;;;;;4.33;60.22;94155.25;5089666;28;20495;-65
2022/12/09 02:50:14;;;;;;;;;;;;;;;4.26;60.28;94149.59;5089194;28;20083;-65
2022/12/09 02:52:41;;;;;;;;;;;;;;;4.40;60.22;94143.28;5089593;28;20055;-64
2022/12/09 02:55:08;;;;;;;;;;;;;;;4.23;59.85;94147.50;5089853;28;20048;-65
2022/12/09 02:57:34;;;;;;;;;;;;;;;4.29;60.19;94144.50;5089450;28;20035;-65
2022/12/09 02:59:59;;;;;;;;;;;;;;;4.36;59.97;94138.88;5089192;28;20044;-65
2022/12/09 03:02:27;;;;;;;;;;;;;;;4.30;59.87;94135.56;5088539;28;20028;-65
2022/12/09 03:05:15;;;;;;;;;;;;;;;4.27;59.88;94132.72;5088571;28;20005;-65
2022/12/09 03:07:46;;;;;;;;;;;;;;;2.97;62.13;94128.75;5042078;28;20017;-65
2022/12/09 03:10:16;;;;;;;;;;;;;;;3.30;61.51;94126.22;5089110;28;20078;-65
2022/12/09 03:12:43;;;;;;;;;;;;;;;3.49;61.43;94111.25;5089296;28;20009;-64
2022/12/09 03:15:11;;;;;;;;;;;;;;;3.67;61.25;94114.94;5089515;28;20055;-66
2022/12/09 03:17:37;;;;;;;;;;;;;;;2.61;62.69;94117.84;5093205;28;20016;-65
2022/12/09 03:20:15;;;;;;;;;;;;;;;3.05;63.06;94122.84;5092995;28;20046;-65
2022/12/09 03:22:42;;;;;;;;;;;;;;;2.38;64.41;94124.63;5093220;28;20012;-65
2022/12/09 03:25:09;;;;;;;;;;;;;;;1.77;66.05;94132.97;5093186;28;20070;-66
2022/12/09 03:27:38;;;;;;;;;;;;;;;1.75;66.11;94142.97;5074775;28;20504;-65
2022/12/09 03:30:04;;;;;;;;;;;;;;;1.29;68.33;94135.38;5092805;28;20009;-65
2022/12/09 03:32:30;;;;;;;;;;;;;;;2.02;66.83;94127.53;5092983;28;20488;-64
2022/12/09 03:35:02;;;;;;;;;;;;;;;1.71;67.57;94126.22;5093163;28;20013;-65
2022/12/09 03:37:29;;;;;;;;;;;;;;;2.19;67.24;94119.25;5093183;28;20830;-64
2022/12/09 03:39:55;;;;;;;;;;;;;;;2.39;66.10;94115.69;5092443;28;20028;-65
2022/12/09 03:42:24;;;;;;;;;;;;;;;2.55;66.00;94114.47;5092672;28;20017;-65
2022/12/09 03:44:52;;;;;;;;;;;;;;;2.63;64.94;94107.84;5092716;28;20107;-65
2022/12/09 03:47:17;;;;;;;;;;;;;;;2.86;64.28;94106.25;5092874;28;20111;-64
2022/12/09 03:49:43;;;;;;;;;;;;;;;3.12;63.91;94098.84;5092117;28;20103;-65
2022/12/09 03:52:30;;;;;;;;;;;;;;;3.28;63.21;94100.25;5092612;28;20013;-65
2022/12/09 03:55:01;;;;;;;;;;;;;;;3.41;62.66;94085.59;5092721;28;20013;-66
2022/12/09 03:57:28;;;;;;;;;;;;;;;3.48;62.42;94075.53;5092674;28;20009;-65
2022/12/09 03:59:56;;;;;;;;;;;;;;;2.70;62.03;93970.97;5091918;28;20055;-65
2022/12/09 04:02:22;;;;;;;;;;;;;;;3.54;61.78;94082.25;5092074;28;20055;-65
2022/12/09 04:04:47;;;;;;;;;;;;;;;3.54;61.38;94082.25;5092374;28;20013;-65
2022/12/09 04:07:12;;;;;;;;;;;;;;;3.55;61.34;94086.44;5074074;28;20021;-65
2022/12/09 04:09:37;;;;;;;;;;;;;;;3.61;61.54;94087.94;5091935;28;20495;-65
2022/12/09 04:12:03;;;;;;;;;;;;;;;3.57;61.10;94092.19;5092030;28;20005;-67
2022/12/09 04:14:28;;;;;;;;;;;;;;;3.65;60.70;94082.91;5092062;28;20024;-65
2022/12/09 04:16:53;;;;;;;;;;;;;;;3.76;60.85;94080.88;5092162;28;20525;-66
2022/12/09 04:19:19;;;;;;;;;;;;;;;3.78;60.72;94070.84;5091905;28;20005;-67
2022/12/09 04:21:44;;;;;;;;;;;;;;;3.87;60.67;94066.50;5092271;28;20013;-68
2022/12/09 04:24:10;;;;;;;;;;;;;;;3.92;60.28;94063.78;5092025;28;20004;-66
2022/12/09 04:26:35;;;;;;;;;;;;;;;3.99;60.30;94064.19;5091678;28;20099;-64
2022/12/09 04:29:00;;;;;;;;;;;;;;;4.01;59.97;94061.28;5091495;28;20012;-66
2022/12/09 04:31:26;;;;;;;;;;;;;;;4.10;60.10;94056.94;5092121;28;20142;-66
2022/12/09 04:33:51;;;;;;;;;;;;;;;4.15;59.78;94055.00;5091702;28;20008;-65
2022/12/09 04:36:18;;;;;;;;;;;;;;;4.23;59.73;94052.75;5091591;28;20473;-66
2022/12/09 04:38:43;;;;;;;;;;;;;;;4.28;59.67;94050.03;5091107;28;20099;-66
2022/12/09 04:41:12;;;;;;;;;;;;;;;4.26;59.01;94036.41;5091393;28;20100;-66
2022/12/09 04:43:37;;;;;;;;;;;;;;;4.24;58.42;94033.25;5073474;28;20013;-66
2022/12/09 04:46:04;;;;;;;;;;;;;;;4.20;59.31;94030.44;5091536;28;20427;-66
2022/12/09 04:48:29;;;;;;;;;;;;;;;4.13;58.95;94020.28;5090796;28;20100;-63
2022/12/09 04:50:55;;;;;;;;;;;;;;;4.09;58.73;94027.19;5091634;28;20082;-64
2022/12/09 04:53:20;;;;;;;;;;;;;;;3.90;58.84;94029.91;5091565;28;20038;-65
2022/12/09 04:55:46;;;;;;;;;;;;;;;4.04;59.05;94032.53;5091538;28;20380;-64
2022/12/09 04:58:11;;;;;;;;;;;;;;;4.21;58.98;94028.59;5091006;28;20108;-65
2022/12/09 05:00:36;;;;;;;;;;;;;;;4.35;58.89;94027.53;5091148;28;20077;-64
2022/12/09 05:03:02;;;;;;;;;;;;;;;4.52;58.57;94024.31;5073064;28;20013;-65
2022/12/09 05:05:27;;;;;;;;;;;;;;;4.68;58.33;94025.56;5091451;28;20077;-64
2022/12/09 05:07:52;;;;;;;;;;;;;;;4.73;57.67;94031.81;5073242;28;20044;-64
2022/12/09 05:10:18;;;;;;;;;;;;;;;4.75;57.26;94011.22;5090907;28;20061;-65
2022/12/09 05:12:43;;;;;;;;;;;;;;;4.88;56.86;94032.28;5072974;28;20027;-65
2022/12/09 05:15:09;;;;;;;;;;;;;;;3.58;57.86;93920.25;5091492;28;20106;-65
2022/12/09 05:17:34;;;;;;;;;;;;;;;3.88;58.88;94028.59;5091227;28;20071;-65
2022/12/09 05:19:59;;;;;;;;;;;;;;;3.37;60.74;94039.91;5090792;28;20066;-65
2022/12/09 05:22:24;;;;;;;;;;;;;;;3.10;61.88;94036.06;5091104;28;20487;-64
2022/12/09 05:24:50;;;;;;;;;;;;;;;3.55;61.13;94031.25;5091244;28;20046;-65
2022/12/09 05:27:15;;;;;;;;;;;;;;;3.96;60.61;94024.53;5091008;28;20017;-65
2022/12/09 05:29:40;;;;;;;;;;;;;;;4.13;60.05;94022.91;5090731;28;20020;-65
2022/12/09 05:32:06;;;;;;;;;;;;;;;4.30;59.45;94011.03;5091108;28;20015;-64
2022/12/09 05:34:31;;;;;;;;;;;;;;;4.46;59.43;94007.06;5090620;28;20013;-64
2022/12/09 05:36:56;;;;;;;;;;;;;;;4.52;58.92;93997.97;5072696;28;20017;-64
2022/12/09 05:39:22;;;;;;;;;;;;;;;4.59;58.66;94013.38;5089791;28;20009;-66
2022/12/09 05:41:48;;;;;;;;;;;;;;;4.66;58.34;94000.63;5090840;28;20538;-66
2022/12/09 05:44:13;;;;;;;;;;;;;;;4.74;58.20;93999.13;5090630;28;20498;-66
2022/12/09 05:46:39;;;;;;;;;;;;;;;4.83;58.12;94010.53;5090610;28;20021;-65
2022/12/09 05:49:04;;;;;;;;;;;;;;;4.90;57.92;94006.41;5089965;28;20008;-66
2022/12/09 05:51:29;;;;;;;;;;;;;;;5.00;57.55;93997.53;5072259;28;20071;-65
2022/12/09 05:53:55;;;;;;;;;;;;;;;5.12;57.02;93995.16;5090286;28;20008;-64
2022/12/09 05:56:21;;;;;;;;;;;;;;;5.16;57.18;93990.06;5090350;28;20521;-64
2022/12/09 05:58:47;;;;;;;;;;;;;;;5.18;57.28;93988.72;5089841;28;20021;-65
2022/12/09 06:01:12;;;;;;;;;;;;;;;5.25;56.91;93987.50;5090454;28;20183;-65
2022/12/09 06:03:38;;;;;;;;;;;;;;;5.26;56.45;93989.06;5090288;28;20016;-65
2022/12/09 06:06:14;;;;;;;;;;;;;;;5.26;56.65;93981.16;5090124;28;20377;-64
2022/12/09 06:08:40;;;;;;;;;;;;;;;5.17;56.43;93986.38;5089779;28;20012;-64
2022/12/09 06:11:09;;;;;;;;;;;;;;;5.22;56.83;93987.03;5090044;28;20009;-65
2022/12/09 06:13:35;;;;;;;;;;;;;;;5.20;56.44;93981.25;5090094;28;20103;-65
2022/12/09 06:16:02;;;;;;;;;;;;;;;5.27;56.56;93982.72;5090025;28;20146;-64
2022/12/09 06:18:27;;;;;;;;;;;;;;;5.17;56.54;93979.25;5089653;28;20019;-65
2022/12/09 06:20:52;;;;;;;;;;;;;;;5.26;56.57;93984.56;5090012;28;20008;-66
2022/12/09 06:23:18;;;;;;;;;;;;;;;5.33;56.03;93971.00;5089886;28;20071;-66
2022/12/09 06:25:44;;;;;;;;;;;;;;;5.28;55.96;93963.97;5089832;28;20377;-65
2022/12/09 06:28:10;;;;;;;;;;;;;;;5.17;55.95;93966.06;5089479;28;20016;-65
2022/12/09 06:30:35;;;;;;;;;;;;;;;5.11;55.91;93961.19;5089924;28;20015;-66
2022/12/09 06:33:00;;;;;;;;;;;;;;;5.09;56.02;93958.84;5089738;28;20061;-67
2022/12/09 06:35:25;;;;;;;;;;;;;;;5.10;56.13;93957.00;5089888;28;20009;-67
2022/12/09 06:37:52;;;;;;;;;;;;;;;5.16;56.07;93950.53;5089750;28;20488;-66
2022/12/09 06:40:22;;;;;;;;;;;;;;;5.21;56.13;93953.03;5088441;28;22393;-66
2022/12/09 06:42:50;;;;;;;;;;;;;;;5.21;56.16;93951.19;5089715;28;20009;-67
2022/12/09 06:45:20;;;;;;;;;;;;;;;5.03;56.04;93960.03;5089735;28;20480;-65
2022/12/09 06:47:45;;;;;;;;;;;;;;;5.05;55.87;93954.47;5089748;28;20017;-66
2022/12/09 06:50:11;;;;;;;;;;;;;;;5.18;55.83;93948.38;5089425;28;20400;-65
2022/12/09 06:52:37;;;;;;;;;;;;;;;5.05;56.38;93943.94;5093605;28;20055;-67
2022/12/09 06:55:03;;;;;;;;;;;;;;;5.13;56.24;93948.50;5093733;28;20075;-66
2022/12/09 06:57:28;;;;;;;;;;;;;;;5.26;55.89;93944.25;5075549;28;20013;-67
2022/12/09 06:59:53;;;;;;;;;;;;;;;5.26;55.74;93945.03;5071869;28;20058;-69
2022/12/09 07:02:19;;;;;;;;;;;;;;;5.26;55.54;93938.97;5066206;28;20441;-68
2022/12/09 07:04:45;;;;;;;;;;;;;;;5.35;55.29;93929.28;5053139;28;20539;-69
2022/12/09 07:07:13;;;;;;;;;;;;;;;5.30;54.82;93924.13;5056635;28;20223;-68
2022/12/09 07:09:39;;;;;;;;;;;;;;;5.33;55.15;93939.34;5071811;28;20013;-69
2022/12/09 07:12:04;;;;;;;;;;;;;;;5.49;55.10;93953.72;5055122;28;20009;-68
2022/12/09 07:14:30;;;;;;;;;;;;;;;5.58;55.57;93962.47;5072902;28;20382;-68
2022/12/09 07:16:55;;;;;;;;;;;;;;;5.66;54.89;93961.75;5073091;28;20013;-68
2022/12/09 07:19:21;;;;;;;;;;;;;;;5.78;54.91;93963.03;5072413;28;20107;-68
2022/12/09 07:21:47;;;;;;;;;;;;;;;5.82;54.33;93962.13;5055028;28;20112;-69
2022/12/09 07:24:13;;;;;;;;;;;;;;;5.92;53.89;93961.91;5072737;28;20179;-68
2022/12/09 07:26:38;;;;;;;;;;;;;;;5.88;53.93;93954.88;5072643;28;20540;-68
2022/12/09 07:29:04;;;;;;;;;;;;;;;5.88;52.93;93949.59;5072408;28;20123;-67
2022/12/09 07:31:30;;;;;;;;;;;;;;;5.92;53.27;93947.94;5072712;28;20013;-67
2022/12/09 07:33:56;;;;;;;;;;;;;;;5.88;52.61;93934.53;5072655;28;20469;-67
2022/12/09 07:36:23;;;;;;;;;;;;;;;5.57;52.80;93937.16;5072306;28;20013;-67
2022/12/09 07:38:52;;;;;;;;;;;;;;;5.62;53.21;93929.13;5054541;28;20020;-67
2022/12/09 07:41:18;;;;;;;;;;;;;;;5.45;52.83;93936.94;5072654;28;20111;-67
2022/12/09 07:43:44;;;;;;;;;;;;;;;5.71;52.92;93937.88;5072251;28;20113;-66
2022/12/09 07:46:10;;;;;;;;;;;;;;;5.83;53.26;93931.25;5072638;28;20018;-66
2022/12/09 07:48:35;;;;;;;;;;;;;;;5.84;53.02;93928.31;5071875;28;20010;-66
2022/12/09 07:51:02;;;;;;;;;;;;;;;5.90;52.46;93923.69;5072628;28;20416;-70
2022/12/09 07:53:27;;;;;;;;;;;;;;;5.95;52.51;93931.50;5070459;28;20107;-68
2022/12/09 07:55:53;;;;;;;;;;;;;;;6.00;52.57;93928.75;5061032;28;20105;-69
2022/12/09 07:58:18;;;;;;;;;;;;;;;5.98;52.56;93936.16;5054787;28;20140;-69
2022/12/09 08:00:43;;;;;;;;;;;;;;;5.84;52.65;93940.75;5053505;28;20039;-69
2022/12/09 08:03:10;;;;;;;;;;;;;;;6.01;52.40;93932.94;5071221;28;20013;-69
2022/12/09 08:05:35;;;;;;;;;;;;;;;6.17;52.76;93938.59;5072312;28;20384;-67
2022/12/09 08:08:01;;;;;;;;;;;;;;;6.23;52.55;93935.50;5040066;28;20021;-68
2022/12/09 08:10:26;;;;;;;;;;;;;;;6.32;51.72;93932.13;5071950;28;20016;-67
2022/12/09 08:12:51;;;;;;;;;;;;;;;6.37;51.42;93932.75;5052575;28;20021;-67
2022/12/09 08:15:18;;;;;;;;;;;;;;;6.40;51.61;93928.72;5072946;28;20016;-69
2022/12/09 08:17:44;;;;;;;;;;;;;;;6.41;51.87;93927.63;5072903;28;20013;-68
2022/12/09 08:20:10;;;;;;;;;;;;;;;6.37;50.94;93908.97;5072270;28;20099;-68
2022/12/09 08:22:36;;;;;;;;;;;;;;;6.25;51.19;93906.94;5072429;28;20069;-67
2022/12/09 08:25:01;;;;;;;;;;;;;;;6.18;51.52;93921.66;5072360;28;20024;-70
2022/12/09 08:27:26;;;;;;;;;;;;;;;6.19;51.47;93923.19;5053391;28;20021;-69
2022/12/09 08:29:52;;;;;;;;;;;;;;;6.38;52.25;93923.72;5071072;28;20516;-68
2022/12/09 08:32:17;;;;;;;;;;;;;;;6.30;51.34;93927.16;5072076;28;20040;-69
2022/12/09 08:34:42;;;;;;;;;;;;;;;5.77;51.98;93916.63;5067224;28;20523;-67
2022/12/09 08:37:07;;;;;;;;;;;;;;;6.01;52.32;93914.44;5069088;28;20096;-66
2022/12/09 08:39:33;;;;;;;;;;;;;;;6.06;52.54;93911.69;5070212;28;20018;-66
2022/12/09 08:41:58;;;;;;;;;;;;;;;6.08;51.90;93909.50;5067510;28;20056;-66
2022/12/09 08:44:23;;;;;;;;;;;;;;;6.04;51.67;93916.50;5051086;28;20017;-66
2022/12/09 08:46:49;;;;;;;;;;;;;;;6.16;51.62;93908.75;5068728;28;20025;-66
2022/12/09 08:49:18;;;;;;;;;;;;;;;5.74;52.58;93896.94;5067443;28;20017;-65
2022/12/09 08:51:44;;;;;;;;;;;;;;;5.84;52.96;93895.88;5071007;28;20132;-66
2022/12/09 08:54:09;;;;;;;;;;;;;;;6.20;52.14;93893.09;5071333;28;20488;-66
2022/12/09 08:56:35;;;;;;;;;;;;;;;6.23;51.81;93889.81;5033853;28;20058;-66
2022/12/09 08:59:00;;;;;;;;;;;;;;;5.93;52.39;93894.84;5065504;28;20021;-67
2022/12/09 09:01:31;;;;;;;;;;;;;;;6.05;52.48;93904.84;5069069;28;20013;-67
2022/12/09 09:03:56;;;;;;;;;;;;;;;5.94;52.16;93901.69;5070177;28;20017;-64
2022/12/09 09:06:21;;;;;;;;;;;;;;;5.95;52.21;93903.25;5068371;28;20074;-65
2022/12/09 09:08:46;;;;;;;;;;;;;;;6.05;52.30;93898.78;5052019;28;20082;-65
2022/12/09 09:11:13;;;;;;;;;;;;;;;5.95;52.21;93907.75;5070826;28;20036;-67
2022/12/09 09:13:39;;;;;;;;;;;;;;;6.18;51.80;93917.16;5069215;28;20017;-66
2022/12/09 09:16:07;;;;;;;;;;;;;;;6.40;51.71;93911.03;5051782;28;20024;-66
2022/12/09 09:18:32;;;;;;;;;;;;;;;6.60;51.81;93912.28;5068998;28;20021;-67
2022/12/09 09:20:58;;;;;;;;;;;;;;;6.88;51.36;93917.31;5052652;28;20099;-68
2022/12/09 09:23:23;;;;;;;;;;;;;;;7.01;51.21;93911.06;5069505;28;20013;-66
2022/12/09 09:25:48;;;;;;;;;;;;;;;7.20;50.27;93903.63;5070255;28;20013;-65
2022/12/09 09:28:14;;;;;;;;;;;;;;;7.38;50.18;93898.31;5069178;28;20021;-65
2022/12/09 09:30:39;;;;;;;;;;;;;;;7.34;48.57;93906.09;5068307;28;20481;-65
2022/12/09 09:33:04;;;;;;;;;;;;;;;7.48;49.32;93927.09;5052330;28;20021;-66
2022/12/09 09:35:29;;;;;;;;;;;;;;;7.44;49.44;93912.94;5068999;28;20024;-66
2022/12/09 09:37:54;;;;;;;;;;;;;;;7.45;49.07;93909.97;5069438;28;20017;-65
2022/12/09 09:40:20;;;;;;;;;;;;;;;7.47;49.10;93907.00;5069399;28;20485;-65
2022/12/09 09:42:48;;;;;;;;;;;;;;;7.55;48.92;93895.63;5070171;28;20126;-65
2022/12/09 09:45:15;;;;;;;;;;;;;;;7.67;48.95;93884.41;5066775;28;20362;-64
2022/12/09 09:47:51;;;;;;;;;;;;;;;7.46;48.69;93881.66;5070274;28;20017;-64
2022/12/09 09:50:37;;;;;;;;;;;;;;;7.29;48.45;93882.47;5050882;28;20016;-66
2022/12/09 09:53:22;;;;;;;;;;;;;;;7.41;48.10;93877.28;5068570;28;20017;-65
2022/12/09 09:55:50;;;;;;;;;;;;;;;7.19;49.43;93865.03;5056227;28;20519;-65
2022/12/09 09:58:19;;;;;;;;;;;;;;;7.14;49.22;93856.50;5049398;28;20016;-65
2022/12/09 10:01:05;;;;;;;;;;;;;;;6.99;49.02;93861.16;5051032;28;20025;-66
2022/12/09 10:03:30;;;;;;;;;;;;;;;7.06;49.56;93854.63;5050825;28;20013;-67
2022/12/09 10:05:57;;;;;;;;;;;;;;;7.16;49.17;93854.31;5070007;28;20016;-66
2022/12/09 10:08:26;;;;;;;;;;;;;;;7.27;49.72;93844.97;5069698;28;20017;-66
2022/12/09 10:11:11;;;;;;;;;;;;;;;7.45;49.67;93846.47;5070215;28;20020;-65
2022/12/09 10:13:45;;;;;;;;;;;;;;;7.38;49.56;93838.25;5051677;28;20043;-66
2022/12/09 10:16:16;;;;;;;;;;;;;;;7.41;49.38;93837.63;5070121;28;20012;-66
2022/12/09 10:18:53;;;;;;;;;;;;;;;7.40;49.12;93841.34;5069490;28;20009;-66
2022/12/09 10:21:19;;;;;;;;;;;;;;;7.54;48.62;93841.16;5051961;28;20492;-66
2022/12/09 10:23:45;;;;;;;;;;;;;;;7.56;48.87;93841.63;5068585;28;20017;-66
2022/12/09 10:26:15;;;;;;;;;;;;;;;7.59;48.35;93838.34;5069677;28;20087;-66
2022/12/09 10:28:43;;;;;;;;;;;;;;;7.57;48.59;93843.16;5069586;28;20436;-68
2022/12/09 10:31:09;;;;;;;;;;;;;;;7.66;48.22;93846.56;5069936;28;20103;-66
2022/12/09 10:33:36;;;;;;;;;;;;;;;7.54;48.89;93838.53;5068593;28;20099;-67
2022/12/09 10:36:03;;;;;;;;;;;;;;;7.52;48.52;93844.16;5069881;28;20100;-67
2022/12/09 10:38:29;;;;;;;;;;;;;;;7.74;48.25;93840.47;5069182;28;20020;-66
2022/12/09 10:40:59;;;;;;;;;;;;;;;7.89;48.25;93828.59;5051786;28;20424;-66
2022/12/09 10:46:02;;;;;;;;;;;;;;;8.10;47.70;93833.94;5070055;28;20015;-67
2022/12/09 10:48:36;;;;;;;;;;;;;;;8.05;47.53;93836.78;5069004;28;20026;-67
2022/12/09 10:51:10;;;;;;;;;;;;;;;8.04;47.64;93824.63;5051411;28;20017;-66
2022/12/09 10:53:42;;;;;;;;;;;;;;;7.91;47.39;93815.03;5051618;28;20529;-66
2022/12/09 10:56:07;;;;;;;;;;;;;;;7.99;47.73;93811.56;5069712;28;20016;-66
2022/12/09 10:58:32;;;;;;;;;;;;;;;8.07;47.78;93816.81;5069273;28;20005;-67
2022/12/09 11:01:01;;;;;;;;;;;;;;;7.79;47.41;93813.06;5069640;28;20013;-66
2022/12/09 11:03:31;;;;;;;;;;;;;;;7.63;47.97;93815.47;5051597;28;20016;-66
2022/12/09 11:05:58;;;;;;;;;;;;;;;6.72;49.89;93806.78;5068520;28;20435;-66
2022/12/09 11:08:23;;;;;;;;;;;;;;;6.93;49.75;93800.84;5068876;28;20066;-66
2022/12/09 11:10:49;;;;;;;;;;;;;;;7.00;49.35;93793.97;5051317;28;20017;-66
2022/12/09 11:13:16;;;;;;;;;;;;;;;7.13;49.63;93786.97;5051122;28;20016;-66
2022/12/09 11:15:44;;;;;;;;;;;;;;;6.93;49.90;93784.97;5068166;28;20020;-66
2022/12/09 11:18:15;;;;;;;;;;;;;;;7.17;49.40;93785.25;5050803;28;20013;-66
2022/12/09 11:20:40;;;;;;;;;;;;;;;7.31;49.68;93779.75;5069452;28;20545;-66
2022/12/09 11:23:11;;;;;;;;;;;;;;;7.21;49.73;93772.94;5069139;28;20009;-66
2022/12/09 11:25:36;;;;;;;;;;;;;;;7.52;49.09;93774.53;5069278;28;20096;-66
2022/12/09 11:28:21;;;;;;;;;;;;;;;7.71;48.46;93779.47;5069084;28;20116;-67
2022/12/09 11:30:51;;;;;;;;;;;;;;;7.91;48.18;93759.44;5068045;28;20013;-67
2022/12/09 11:33:24;;;;;;;;;;;;;;;8.06;47.82;93759.66;5067931;28;20017;-66
2022/12/09 11:35:52;;;;;;;;;;;;;;;7.96;47.77;93753.94;5069205;28;20108;-67
2022/12/09 11:38:24;;;;;;;;;;;;;;;8.15;47.69;93749.00;5071744;28;20010;-67
2022/12/09 11:41:07;;;;;;;;;;;;;;;8.02;47.05;93753.44;5072792;28;20059;-67
2022/12/09 11:43:49;;;;;;;;;;;;;;;8.05;47.64;93746.75;5054560;28;20017;-67
2022/12/09 11:46:19;;;;;;;;;;;;;;;7.94;47.46;93745.56;5072591;28;20431;-67
2022/12/09 11:49:01;;;;;;;;;;;;;;;7.84;47.70;93746.69;5070685;28;20462;-67
2022/12/09 11:51:31;;;;;;;;;;;;;;;8.07;47.72;93737.34;5072144;28;20009;-67
2022/12/09 11:54:04;;;;;;;;;;;;;;;7.76;47.74;93737.69;5054540;28;20048;-66
2022/12/09 11:56:31;;;;;;;;;;;;;;;7.91;47.54;93736.38;5054464;28;20697;-67
2022/12/09 11:59:02;;;;;;;;;;;;;;;7.86;47.99;93741.84;5071851;28;20071;-68
2022/12/09 12:01:48;;;;;;;;;;;;;;;7.93;47.81;93736.03;5072359;28;20016;-68
2022/12/09 12:04:15;;;;;;;;;;;;;;;7.89;47.68;93735.16;5085520;22;20025;-67
2022/12/09 12:06:57;;;;;;;;;;;;;;;7.99;47.64;93737.44;5072155;28;20017;-67
2022/12/09 12:09:26;;;;;;;;;;;;;;;8.01;47.66;93728.06;5053979;28;20020;-67
2022/12/09 12:12:11;;;;;;;;;;;;;;;8.01;47.56;93732.59;5053943;28;20058;-68
2022/12/09 12:14:40;;;;;;;;;;;;;;;7.71;48.02;93723.88;5071944;28;20063;-67
2022/12/09 12:17:15;;;;;;;;;;;;;;;7.53;48.49;93723.97;5072058;28;20013;-68
2022/12/09 12:19:42;;;;;;;;;;;;;;;7.49;49.02;93738.94;5071777;28;20015;-68
2022/12/09 12:22:07;;;;;;;;;;;;;;;7.75;48.46;93736.16;5071997;28;20020;-68
2022/12/09 12:24:32;;;;;;;;;;;;;;;7.67;49.12;93731.66;5071723;28;20009;-68
2022/12/09 12:27:16;;;;;;;;;;;;;;;7.79;48.59;93725.72;5071751;28;20021;-68
2022/12/09 12:29:41;;;;;;;;;;;;;;;8.02;48.77;93726.94;5071423;28;20009;-68
2022/12/09 12:32:14;;;;;;;;;;;;;;;7.86;48.48;93730.50;5071678;28;20015;-68
2022/12/09 12:34:57;;;;;;;;;;;;;;;8.00;48.18;93729.16;5071985;28;20513;-68
2022/12/09 12:37:44;;;;;;;;;;;;;;;7.91;48.59;93725.00;5071833;28;20017;-69
2022/12/09 12:40:25;;;;;;;;;;;;;;;7.78;48.30;93727.59;5071702;28;20469;-68
2022/12/09 12:48:39;;;;;;;;;;;;;;;7.48;49.20;93726.03;5071096;28;20862;-72
2022/12/09 12:51:24;;;;;;;;;;;;;;;7.56;48.75;93717.25;5071302;28;20219;-68
2022/12/09 12:53:54;;;;;;;;;;;;;;;7.52;49.20;93724.28;5053459;28;20481;-68
2022/12/09 12:56:29;;;;;;;;;;;;;;;7.42;49.49;93729.91;5071171;28;20532;-68
2022/12/09 12:59:05;;;;;;;;;;;;;;;7.45;49.89;93718.72;5071257;28;20495;-67
2022/12/09 13:01:30;;;;;;;;;;;;;;;7.39;49.86;93720.00;5071213;28;20031;-68
2022/12/09 13:04:00;;;;;;;;;;;;;;;7.47;49.98;93717.31;5071104;28;20509;-67
2022/12/09 13:06:49;;;;;;;;;;;;;;;7.46;49.83;93709.69;5052918;28;20013;-67
2022/12/09 13:09:22;;;;;;;;;;;;;;;7.25;50.54;93709.63;5022988;28;20055;-68